Terminal Aerodrome Forecast
Issued by NWS Miami, FL

Home | Current Version | Previous Version | Text Only | Print | Product List | Glossary On
Versions: 1 2 3 4 5 6 7 8 9 10 11 12 13 14 15 16 17 18 19 20 21 22 23
000
FTUS42 KMFL 230959 AAA
TAFAPF
TAF AMD
KAPF 230959Z 2310/2406 12006KT P6SM OVC050
     FM231700 19005KT P6SM VCSH SCT025 BKN080
     FM232200 25010KT P6SM VCSH SCT025 BKN050
     FM240300 33002KT P6SM BKN050=

USA.gov is the U.S. government's official web portal to all federal, state and local government web resources and services.